createdAt,value
2022-10-31T00:03:59.396Z,94.80
2022-10-31T00:08:03.523Z,94.80
2022-10-31T00:12:06.833Z,94.80
2022-10-31T00:16:16.064Z,94.80
2022-10-31T00:20:18.948Z,95.10
2022-10-31T00:24:23.057Z,95.10
2022-10-31T00:28:25.913Z,95.20
2022-10-31T00:32:31.117Z,95.30
2022-10-31T00:36:34.037Z,95.40
2022-10-31T00:40:38.236Z,95.30
2022-10-31T00:44:41.076Z,95.40
2022-10-31T00:48:44.713Z,95.30
2022-10-31T00:52:47.505Z,95.40
2022-10-31T00:56:51.688Z,95.30
2022-10-31T01:00:56.751Z,95.50
2022-10-31T01:04:59.695Z,95.40
2022-10-31T01:09:02.510Z,95.40
2022-10-31T01:13:06.712Z,95.50
2022-10-31T01:17:09.531Z,95.70
2022-10-31T01:21:14.658Z,95.80
2022-10-31T01:25:17.600Z,95.70
2022-10-31T01:29:21.795Z,95.90
2022-10-31T01:33:25.915Z,96.00
2022-10-31T01:37:28.889Z,95.90
2022-10-31T01:41:34.327Z,95.90
2022-10-31T01:45:38.764Z,96.10
2022-10-31T01:49:45.387Z,96.00
2022-10-31T01:53:48.862Z,96.00
2022-10-31T01:57:55.322Z,96.20
2022-10-31T02:01:59.744Z,96.30
2022-10-31T02:06:04.969Z,96.40
2022-10-31T02:10:08.400Z,96.40
2022-10-31T02:14:11.316Z,96.30
2022-10-31T02:18:15.839Z,96.40
2022-10-31T02:22:28.196Z,96.40
2022-10-31T02:26:59.439Z,96.60
2022-10-31T02:31:22.479Z,96.70
2022-10-31T02:35:41.112Z,97.00
2022-10-31T02:39:56.506Z,97.30
2022-10-31T02:44:18.863Z,97.50
2022-10-31T02:48:28.938Z,97.90
2022-10-31T02:52:34.510Z,97.90
2022-10-31T02:56:41.055Z,97.90
2022-10-31T03:00:52.242Z,97.90
2022-10-31T03:05:15.703Z,98.00
2022-10-31T03:09:25.274Z,98.20
2022-10-31T03:13:37.636Z,98.20
2022-10-31T03:17:49.161Z,98.00
2022-10-31T03:21:58.065Z,98.30
2022-10-31T03:26:04.446Z,98.30
2022-10-31T03:30:09.123Z,98.30
2022-10-31T03:34:28.747Z,98.40
2022-10-31T03:38:34.485Z,98.30
2022-10-31T03:42:43.011Z,98.20
2022-10-31T03:46:46.539Z,98.50
2022-10-31T03:50:58.451Z,98.60
2022-10-31T03:55:08.568Z,98.80
2022-10-31T03:59:16.340Z,98.90
2022-10-31T04:03:24.633Z,99.00
2022-10-31T04:07:33.888Z,98.90
2022-10-31T04:11:44.362Z,98.90
2022-10-31T04:16:16.913Z,99.10
2022-10-31T04:20:20.455Z,99.20
2022-10-31T04:24:24.767Z,99.30
2022-10-31T04:28:29.758Z,99.40
2022-10-31T04:32:33.507Z,99.50
2022-10-31T04:36:36.353Z,99.60
2022-10-31T04:40:39.290Z,99.80
2022-10-31T04:45:15.495Z,99.90
2022-10-31T04:49:21.385Z,99.90
2022-10-31T04:53:24.301Z,99.90
2022-10-31T04:57:48.671Z,99.90
2022-10-31T05:01:54.119Z,99.90
2022-10-31T05:06:04.441Z,99.90
2022-10-31T05:10:08.213Z,99.90
2022-10-31T05:14:11.334Z,99.90
2022-10-31T05:18:50.600Z,99.90
2022-10-31T05:23:13.703Z,99.90
2022-10-31T05:27:17.952Z,99.90
2022-10-31T05:31:20.831Z,99.90
2022-10-31T05:35:28.596Z,99.90
2022-10-31T05:39:51.858Z,99.90
2022-10-31T05:43:54.819Z,99.90
2022-10-31T05:48:03.800Z,99.90
2022-10-31T05:52:27.048Z,99.90
2022-10-31T05:56:37.204Z,99.90
2022-10-31T06:00:40.106Z,99.90
2022-10-31T06:04:45.277Z,99.90
2022-10-31T06:08:49.756Z,99.90
2022-10-31T06:12:58.596Z,99.90
2022-10-31T06:17:22.357Z,99.90
2022-10-31T06:21:25.649Z,99.90
2022-10-31T06:25:30.100Z,99.90
2022-10-31T06:29:33.213Z,99.90
2022-10-31T06:33:46.535Z,99.90
2022-10-31T06:37:53.728Z,99.90
2022-10-31T06:42:27.109Z,99.90
2022-10-31T06:46:30.325Z,99.90
2022-10-31T06:50:49.776Z,99.90
2022-10-31T06:54:52.658Z,99.90
2022-10-31T06:58:57.444Z,99.90
2022-10-31T07:03:23.292Z,99.90
2022-10-31T07:07:26.555Z,99.90
2022-10-31T07:11:29.895Z,99.90
2022-10-31T07:15:38.252Z,99.90
2022-10-31T07:19:41.188Z,99.90
2022-10-31T07:23:45.214Z,99.90
2022-10-31T07:28:14.935Z,99.90
2022-10-31T07:32:23.330Z,99.90
2022-10-31T07:36:33.017Z,99.90
2022-10-31T07:40:39.941Z,99.90
2022-10-31T07:44:44.233Z,99.90
2022-10-31T07:49:08.325Z,99.90
2022-10-31T07:53:29.858Z,99.90
2022-10-31T08:01:46.289Z,99.90
2022-10-31T08:06:10.493Z,99.90
2022-10-31T08:10:32.414Z,99.90
2022-10-31T08:14:35.452Z,99.90
2022-10-31T08:18:38.979Z,99.90
2022-10-31T08:22:54.974Z,99.90
2022-10-31T08:26:57.951Z,99.90
2022-10-31T08:31:01.339Z,99.90
2022-10-31T08:35:16.390Z,99.90
2022-10-31T08:39:49.742Z,99.90
2022-10-31T08:43:52.543Z,99.90
2022-10-31T08:47:59.549Z,99.80
2022-10-31T08:52:08.492Z,99.50
2022-10-31T08:56:20.806Z,99.30
2022-10-31T09:00:23.885Z,99.20
2022-10-31T09:04:37.061Z,99.10
2022-10-31T09:08:44.651Z,98.80
2022-10-31T09:12:48.922Z,98.60
2022-10-31T09:17:03.740Z,98.50
2022-10-31T09:21:23.591Z,97.80
2022-10-31T09:25:26.881Z,97.60
2022-10-31T09:29:54.349Z,97.00
2022-10-31T09:33:57.444Z,97.00
2022-10-31T09:38:15.524Z,96.70
2022-10-31T09:42:46.689Z,96.10
2022-10-31T09:47:07.697Z,96.10
2022-10-31T09:51:14.684Z,95.70
2022-10-31T09:55:40.957Z,95.70
2022-10-31T09:59:46.444Z,95.50
2022-10-31T10:03:55.938Z,95.50
2022-10-31T10:08:22.337Z,95.10
2022-10-31T10:13:36.817Z,94.90
2022-10-31T10:17:46.984Z,94.40
2022-10-31T10:21:58.051Z,93.40
2022-10-31T10:26:11.260Z,93.20
2022-10-31T10:30:17.954Z,92.90
2022-10-31T10:34:26.457Z,92.80
2022-10-31T10:38:35.798Z,92.90
2022-10-31T10:42:56.658Z,92.20
2022-10-31T10:47:19.640Z,91.80
2022-10-31T10:51:38.863Z,91.70
2022-10-31T10:55:55.283Z,91.60
2022-10-31T11:00:15.010Z,91.30
2022-10-31T11:04:27.864Z,90.80
2022-10-31T11:08:34.482Z,90.80
2022-10-31T11:12:38.755Z,90.70
2022-10-31T11:16:44.343Z,90.20
2022-10-31T11:20:54.273Z,90.40
2022-10-31T11:24:57.289Z,90.00
2022-10-31T11:29:03.982Z,90.20
2022-10-31T11:33:06.823Z,90.20
2022-10-31T11:37:15.871Z,89.50
2022-10-31T11:41:20.770Z,90.00
2022-10-31T11:45:34.575Z,89.70
2022-10-31T11:49:40.897Z,90.00
2022-10-31T11:53:58.410Z,89.40
2022-10-31T11:58:05.379Z,89.60
2022-10-31T12:02:21.326Z,89.50
2022-10-31T12:06:30.434Z,90.00
2022-10-31T12:10:44.806Z,87.90
2022-10-31T12:15:01.856Z,89.30
2022-10-31T12:19:13.276Z,88.30
2022-10-31T12:23:25.432Z,88.40
2022-10-31T12:27:37.926Z,88.10
2022-10-31T12:31:54.138Z,87.90
2022-10-31T12:36:12.634Z,88.90
2022-10-31T12:40:31.932Z,88.40
2022-10-31T12:45:11.031Z,88.50
2022-10-31T12:49:36.276Z,88.90
2022-10-31T12:53:55.840Z,88.60
2022-10-31T12:58:04.163Z,89.30
2022-10-31T13:02:16.924Z,89.30
2022-10-31T13:06:23.044Z,89.40
2022-10-31T13:10:32.626Z,89.20
2022-10-31T13:14:40.464Z,89.90
2022-10-31T13:18:48.364Z,90.00
2022-10-31T13:22:55.530Z,90.00
2022-10-31T13:27:02.820Z,89.40
2022-10-31T13:31:05.815Z,90.10
2022-10-31T13:35:15.896Z,90.00
2022-10-31T13:39:28.194Z,89.90
2022-10-31T13:43:40.128Z,89.70
2022-10-31T13:47:44.443Z,89.50
2022-10-31T13:51:49.037Z,89.50
2022-10-31T13:56:04.943Z,90.00
2022-10-31T14:00:26.728Z,90.30
2022-10-31T14:04:38.273Z,89.30
2022-10-31T14:08:48.907Z,89.80
2022-10-31T14:12:52.044Z,90.20
2022-10-31T14:16:59.587Z,90.00
2022-10-31T14:21:02.442Z,90.10
2022-10-31T14:25:27.075Z,90.20
2022-10-31T14:29:31.371Z,90.10
2022-10-31T14:33:35.834Z,90.10
2022-10-31T14:38:11.058Z,90.30
2022-10-31T14:42:29.779Z,90.70
2022-10-31T14:46:43.863Z,90.70
2022-10-31T14:54:57.569Z,90.40
2022-10-31T14:59:03.602Z,91.00
2022-10-31T15:03:14.306Z,91.20
2022-10-31T15:07:24.726Z,91.30
2022-10-31T15:11:29.230Z,91.40
2022-10-31T15:15:33.884Z,91.50
2022-10-31T15:19:37.565Z,91.80
2022-10-31T15:24:19.330Z,91.90
2022-10-31T15:28:25.959Z,92.30
2022-10-31T15:32:30.236Z,92.40
2022-10-31T15:36:37.341Z,92.60
2022-10-31T15:40:55.619Z,92.80
2022-10-31T15:45:03.479Z,92.80
2022-10-31T15:49:12.070Z,93.10
2022-10-31T15:53:20.387Z,93.30
2022-10-31T15:57:26.992Z,93.60
2022-10-31T16:01:31.634Z,93.90
2022-10-31T16:05:40.353Z,94.20
2022-10-31T16:09:52.477Z,94.30
2022-10-31T16:13:59.954Z,94.10
2022-10-31T16:18:02.826Z,93.60
2022-10-31T16:22:08.759Z,93.90
2022-10-31T16:26:11.751Z,93.70
2022-10-31T16:30:42.785Z,93.50
2022-10-31T16:35:00.038Z,93.70
2022-10-31T16:39:02.820Z,93.70
2022-10-31T16:43:05.737Z,93.60
2022-10-31T16:47:15.933Z,93.60
2022-10-31T16:51:18.793Z,93.40
2022-10-31T16:55:22.661Z,93.30
2022-10-31T16:59:25.540Z,93.10
2022-10-31T17:03:29.777Z,93.00
2022-10-31T17:07:32.735Z,93.00
2022-10-31T17:11:36.091Z,93.00
2022-10-31T17:15:44.987Z,93.10
2022-10-31T17:19:49.163Z,93.20
2022-10-31T17:23:52.097Z,93.30
2022-10-31T17:27:55.017Z,93.40
2022-10-31T17:31:57.851Z,93.40
2022-10-31T17:36:03.915Z,93.40
2022-10-31T17:40:07.889Z,93.20
2022-10-31T17:44:11.752Z,93.20
2022-10-31T17:48:14.601Z,93.10
2022-10-31T17:52:18.734Z,93.00
2022-10-31T17:56:21.542Z,93.00
2022-10-31T18:00:24.841Z,93.10
2022-10-31T18:04:28.515Z,93.00
2022-10-31T18:08:34.334Z,93.00
2022-10-31T18:12:37.950Z,93.10
2022-10-31T18:16:40.781Z,93.20
2022-10-31T18:20:43.711Z,93.10
2022-10-31T18:24:47.890Z,93.10
2022-10-31T18:28:50.888Z,93.00
2022-10-31T18:32:53.730Z,93.00
2022-10-31T18:36:56.511Z,92.90
2022-10-31T18:41:00.686Z,92.80
2022-10-31T18:45:11.578Z,92.70
2022-10-31T18:49:29.114Z,92.70
2022-10-31T18:53:32.274Z,92.80
2022-10-31T18:57:36.875Z,92.70
2022-10-31T19:01:39.908Z,92.60
2022-10-31T19:05:43.041Z,92.50
2022-10-31T19:09:45.832Z,92.40
2022-10-31T19:13:49.948Z,92.40
2022-10-31T19:17:52.776Z,92.50
2022-10-31T19:21:56.008Z,92.40
2022-10-31T19:25:59.178Z,92.40
2022-10-31T19:30:03.903Z,92.50
2022-10-31T19:34:06.719Z,92.60
2022-10-31T19:38:09.579Z,92.60
2022-10-31T19:42:13.369Z,92.80
2022-10-31T19:46:22.921Z,93.00
2022-10-31T19:50:36.588Z,93.10
2022-10-31T19:54:39.370Z,93.20
2022-10-31T19:58:42.737Z,93.30
2022-10-31T20:02:46.939Z,93.30
2022-10-31T20:06:49.768Z,93.40
2022-10-31T20:10:56.690Z,93.50
2022-10-31T20:14:59.511Z,93.70
2022-10-31T20:19:03.906Z,94.00
2022-10-31T20:23:06.802Z,94.10
2022-10-31T20:27:09.586Z,94.30
2022-10-31T20:31:14.612Z,94.30
2022-10-31T20:35:19.905Z,94.50
2022-10-31T20:39:22.796Z,94.60
2022-10-31T20:43:25.579Z,94.70
2022-10-31T20:47:28.379Z,94.80
2022-10-31T20:51:32.567Z,94.90
2022-10-31T20:55:35.406Z,95.10
2022-10-31T20:59:38.336Z,95.20
2022-10-31T21:03:41.284Z,95.20
2022-10-31T21:07:45.466Z,95.20
2022-10-31T21:11:48.303Z,95.30
2022-10-31T21:16:00.504Z,95.40
2022-10-31T21:20:04.423Z,95.50
2022-10-31T21:24:13.126Z,95.40
2022-10-31T21:28:16.034Z,95.50
2022-10-31T21:32:18.918Z,95.60
2022-10-31T21:36:21.786Z,95.70
2022-10-31T21:40:25.974Z,95.90
2022-10-31T21:44:28.771Z,96.20
2022-10-31T21:48:31.609Z,96.40
2022-10-31T21:52:34.446Z,96.70
2022-10-31T21:56:38.935Z,96.80
2022-10-31T22:00:41.768Z,96.90
2022-10-31T22:04:45.480Z,97.50
2022-10-31T22:08:48.631Z,97.50
2022-10-31T22:12:52.780Z,97.50
2022-10-31T22:16:55.558Z,97.20
2022-10-31T22:21:02.838Z,97.50
2022-10-31T22:25:06.352Z,97.90
2022-10-31T22:29:12.835Z,97.90
2022-10-31T22:33:15.627Z,98.30
2022-10-31T22:37:19.858Z,98.10
2022-10-31T22:41:24.959Z,98.20
2022-10-31T22:45:29.085Z,98.00
2022-10-31T22:49:31.905Z,97.70
2022-10-31T22:53:35.892Z,97.40
2022-10-31T22:57:38.721Z,97.90
2022-10-31T23:01:44.726Z,98.20
2022-10-31T23:05:55.625Z,98.30
2022-10-31T23:09:58.503Z,98.20
2022-10-31T23:14:13.804Z,98.20
2022-10-31T23:18:30.163Z,98.20
2022-10-31T23:22:41.474Z,98.00
2022-10-31T23:27:02.018Z,97.90
2022-10-31T23:31:05.073Z,97.70
2022-10-31T23:35:11.072Z,97.70
2022-10-31T23:39:13.855Z,97.80
2022-10-31T23:43:16.679Z,97.70
2022-10-31T23:47:20.079Z,97.80
2022-10-31T23:51:24.239Z,97.90
2022-10-31T23:55:26.999Z,97.90
2022-10-31T23:59:29.957Z,97.70
